createdAt,value
2022-09-30T00:01:29.519Z,25.15
2022-09-30T00:03:57.668Z,25.14
2022-09-30T00:06:26.817Z,25.17
2022-09-30T00:08:53.527Z,24.97
2022-09-30T00:11:27.527Z,24.91
2022-09-30T00:13:55.494Z,24.84
2022-09-30T00:16:23.458Z,24.80
2022-09-30T00:18:51.205Z,24.75
2022-09-30T00:21:18.108Z,24.75
2022-09-30T00:23:45.521Z,24.57
2022-09-30T00:26:15.049Z,24.55
2022-09-30T00:28:43.594Z,24.51
2022-09-30T00:31:16.121Z,24.44
2022-09-30T00:33:44.517Z,24.41
2022-09-30T00:36:11.441Z,24.45
2022-09-30T00:38:37.952Z,24.34
2022-09-30T00:41:04.762Z,24.28
2022-09-30T00:43:51.461Z,24.33
2022-09-30T00:46:30.104Z,24.28
2022-09-30T00:48:58.429Z,24.08
2022-09-30T00:51:32.747Z,23.74
2022-09-30T00:54:03.318Z,22.81
2022-09-30T00:56:37.351Z,22.76
2022-09-30T00:59:13.498Z,22.90
2022-09-30T01:01:42.021Z,22.93
2022-09-30T01:04:17.689Z,23.10
2022-09-30T01:06:45.280Z,23.68
2022-09-30T01:09:12.297Z,23.40
2022-09-30T01:11:39.616Z,23.38
2022-09-30T01:14:12.542Z,22.95
2022-09-30T01:16:42.069Z,21.92
2022-09-30T01:19:24.591Z,21.95
2022-09-30T01:22:10.000Z,22.09
2022-09-30T01:25:04.647Z,21.72
2022-09-30T01:27:56.375Z,21.93
2022-09-30T01:31:00.654Z,22.08
2022-09-30T01:34:07.791Z,22.58
2022-09-30T01:37:03.417Z,22.96
2022-09-30T01:40:27.796Z,23.03
2022-09-30T01:43:11.278Z,23.34
2022-09-30T01:45:46.451Z,23.17
2022-09-30T01:48:24.076Z,23.22
2022-09-30T01:51:09.986Z,22.43
2022-09-30T01:54:00.192Z,22.55
2022-09-30T01:56:41.716Z,22.85
2022-09-30T01:59:17.402Z,23.28
2022-09-30T02:01:50.210Z,23.59
2022-09-30T02:04:33.429Z,23.45
2022-09-30T02:07:05.325Z,23.24
2022-09-30T02:09:41.297Z,23.16
2022-09-30T02:12:15.345Z,23.21
2022-09-30T02:14:46.595Z,23.26
2022-09-30T02:17:19.743Z,23.06
2022-09-30T02:19:56.665Z,23.14
2022-09-30T02:22:33.390Z,22.61
2022-09-30T02:25:03.851Z,22.58
2022-09-30T02:27:40.378Z,22.73
2022-09-30T02:30:09.301Z,23.03
2022-09-30T02:32:44.090Z,22.78
2022-09-30T02:35:18.531Z,23.14
2022-09-30T02:37:55.632Z,23.32
2022-09-30T02:40:32.138Z,23.49
2022-09-30T02:42:59.013Z,23.59
2022-09-30T02:45:27.111Z,23.72
2022-09-30T02:48:12.843Z,23.83
2022-09-30T02:50:47.521Z,23.98
2022-09-30T02:53:30.816Z,24.04
2022-09-30T02:56:19.432Z,24.10
2022-09-30T02:58:47.474Z,24.11
2022-09-30T03:01:16.074Z,24.22
2022-09-30T03:03:57.057Z,24.36
2022-09-30T03:06:24.793Z,24.37
2022-09-30T03:08:52.967Z,24.43
2022-09-30T03:11:25.795Z,24.51
2022-09-30T03:14:14.750Z,24.45
2022-09-30T03:17:10.949Z,24.34
2022-09-30T03:20:08.865Z,24.10
2022-09-30T03:23:03.144Z,23.98
2022-09-30T03:25:51.299Z,24.06
2022-09-30T03:28:24.003Z,24.03
2022-09-30T03:31:01.880Z,24.05
2022-09-30T03:33:59.127Z,24.00
2022-09-30T03:36:55.556Z,23.95
2022-09-30T03:39:35.746Z,23.97
2022-09-30T03:42:11.088Z,23.91
2022-09-30T03:45:00.388Z,23.60
2022-09-30T03:47:29.573Z,23.59
2022-09-30T03:50:01.369Z,23.25
2022-09-30T03:52:32.019Z,23.30
2022-09-30T03:55:02.632Z,23.13
2022-09-30T03:57:30.470Z,23.15
2022-09-30T03:59:58.467Z,23.28
2022-09-30T04:02:26.046Z,23.41
2022-09-30T04:04:53.266Z,23.36
2022-09-30T04:07:19.839Z,22.71
2022-09-30T04:09:46.512Z,22.71
2022-09-30T04:12:13.331Z,22.78
2022-09-30T04:14:39.917Z,22.40
2022-09-30T04:17:07.069Z,22.40
2022-09-30T04:19:38.155Z,22.03
2022-09-30T04:22:04.744Z,22.30
2022-09-30T04:24:31.575Z,22.31
2022-09-30T04:26:58.339Z,22.05
2022-09-30T04:29:25.276Z,21.79
2022-09-30T04:31:52.111Z,21.96
2022-09-30T04:34:18.773Z,22.27
2022-09-30T04:36:45.799Z,22.19
2022-09-30T04:39:12.549Z,22.42
2022-09-30T04:41:39.138Z,22.52
2022-09-30T04:44:06.303Z,22.66
2022-09-30T04:46:36.593Z,22.85
2022-09-30T04:49:08.998Z,22.96
2022-09-30T04:51:36.439Z,23.02
2022-09-30T04:54:03.536Z,22.95
2022-09-30T04:56:30.135Z,23.01
2022-09-30T04:58:57.325Z,22.91
2022-09-30T05:01:24.467Z,22.97
2022-09-30T05:03:51.202Z,22.99
2022-09-30T05:06:18.023Z,23.01
2022-09-30T05:08:46.113Z,22.97
2022-09-30T05:11:18.513Z,22.99
2022-09-30T05:13:45.936Z,22.94
2022-09-30T05:16:13.278Z,22.94
2022-09-30T05:18:45.441Z,22.85
2022-09-30T05:21:14.571Z,22.81
2022-09-30T05:23:41.251Z,22.87
2022-09-30T05:26:12.310Z,22.81
2022-09-30T05:28:39.856Z,22.77
2022-09-30T05:31:06.678Z,22.83
2022-09-30T05:33:35.670Z,22.80
2022-09-30T05:36:05.381Z,22.80
2022-09-30T05:38:32.165Z,22.77
2022-09-30T05:40:59.184Z,22.74
2022-09-30T05:43:25.747Z,22.71
2022-09-30T05:45:56.796Z,22.76
2022-09-30T05:48:25.433Z,22.81
2022-09-30T05:51:00.862Z,22.82
2022-09-30T05:53:28.409Z,22.79
2022-09-30T05:55:55.217Z,22.99
2022-09-30T05:58:21.885Z,23.06
2022-09-30T06:00:49.505Z,22.98
2022-09-30T06:03:17.426Z,23.14
2022-09-30T06:05:45.736Z,23.62
2022-09-30T06:08:13.587Z,23.72
2022-09-30T06:10:41.896Z,23.48
2022-09-30T06:13:08.493Z,23.15
2022-09-30T06:15:38.049Z,22.97
2022-09-30T06:18:04.880Z,23.11
2022-09-30T06:20:31.484Z,23.37
2022-09-30T06:23:01.824Z,23.66
2022-09-30T06:25:30.129Z,23.55
2022-09-30T06:27:58.158Z,23.53
2022-09-30T06:30:25.672Z,23.50
2022-09-30T06:32:54.023Z,23.51
2022-09-30T06:35:21.710Z,23.51
2022-09-30T06:37:51.315Z,23.16
2022-09-30T06:40:18.666Z,23.01
2022-09-30T06:42:45.204Z,22.67
2022-09-30T06:45:22.867Z,22.83
2022-09-30T06:48:00.930Z,22.93
2022-09-30T06:50:28.295Z,23.25
2022-09-30T06:52:59.346Z,23.78
2022-09-30T06:55:27.248Z,23.96
2022-09-30T06:57:55.377Z,24.12
2022-09-30T07:00:23.450Z,24.55
2022-09-30T07:02:50.503Z,25.95
2022-09-30T07:05:17.631Z,27.77
2022-09-30T07:07:44.223Z,29.81
2022-09-30T07:10:11.158Z,31.64
2022-09-30T07:12:38.433Z,33.36
2022-09-30T07:15:05.313Z,34.29
2022-09-30T07:17:32.175Z,35.21
2022-09-30T07:19:59.419Z,36.53
2022-09-30T07:22:34.255Z,37.70
2022-09-30T07:25:04.302Z,37.72
2022-09-30T07:27:33.236Z,38.27
2022-09-30T07:32:47.772Z,39.73
2022-09-30T07:35:14.736Z,39.56
2022-09-30T07:37:41.351Z,39.87
2022-09-30T07:40:09.353Z,40.34
2022-09-30T07:42:44.710Z,40.60
2022-09-30T07:45:12.624Z,40.80
2022-09-30T07:47:39.185Z,41.23
2022-09-30T07:50:06.237Z,41.33
2022-09-30T07:52:33.121Z,41.33
2022-09-30T07:54:59.679Z,41.51
2022-09-30T07:57:26.208Z,41.68
2022-09-30T07:59:52.757Z,42.05
2022-09-30T08:02:19.461Z,41.60
2022-09-30T08:04:46.859Z,41.57
2022-09-30T08:07:15.486Z,41.48
2022-09-30T08:09:42.494Z,40.99
2022-09-30T08:12:09.312Z,41.11
2022-09-30T08:14:35.870Z,42.20
2022-09-30T08:17:02.619Z,42.45
2022-09-30T08:19:30.984Z,41.92
2022-09-30T08:21:58.527Z,42.50
2022-09-30T08:24:26.615Z,42.13
2022-09-30T08:26:54.354Z,41.62
2022-09-30T08:29:42.536Z,40.99
2022-09-30T08:32:07.954Z,39.54
2022-09-30T08:34:35.508Z,40.04
2022-09-30T08:37:08.760Z,40.16
2022-09-30T08:39:37.415Z,39.91
2022-09-30T08:42:36.758Z,40.81
2022-09-30T08:45:25.381Z,40.95
2022-09-30T08:48:21.510Z,41.51
2022-09-30T08:50:48.010Z,40.61
2022-09-30T08:53:26.419Z,40.96
2022-09-30T08:55:57.250Z,40.94
2022-09-30T08:58:30.479Z,40.46
2022-09-30T09:01:05.360Z,39.94
2022-09-30T09:03:34.141Z,40.16
2022-09-30T09:06:15.327Z,40.85
2022-09-30T09:09:19.893Z,41.12
2022-09-30T09:11:53.496Z,41.61
2022-09-30T09:14:41.481Z,41.43
2022-09-30T09:17:29.410Z,41.72
2022-09-30T09:20:13.032Z,41.47
2022-09-30T09:22:40.881Z,41.32
2022-09-30T09:25:17.339Z,40.48
2022-09-30T09:28:04.405Z,39.74
2022-09-30T09:30:43.450Z,39.19
2022-09-30T09:33:23.047Z,38.97
2022-09-30T09:36:15.586Z,39.70
2022-09-30T09:38:55.519Z,39.86
2022-09-30T09:41:50.002Z,38.47
2022-09-30T09:44:42.825Z,37.24
2022-09-30T09:47:15.606Z,37.44
2022-09-30T09:49:44.752Z,37.50
2022-09-30T09:52:12.700Z,36.42
2022-09-30T09:54:45.432Z,36.50
2022-09-30T09:57:16.738Z,36.75
2022-09-30T09:59:58.469Z,35.25
2022-09-30T10:02:30.732Z,34.96
2022-09-30T10:05:03.446Z,34.73
2022-09-30T10:07:34.021Z,34.36
2022-09-30T10:10:06.418Z,33.58
2022-09-30T10:12:33.058Z,33.99
2022-09-30T10:15:03.514Z,34.34
2022-09-30T10:17:35.595Z,34.29
2022-09-30T10:20:27.117Z,33.83
2022-09-30T10:23:02.663Z,32.78
2022-09-30T10:25:29.692Z,33.27
2022-09-30T10:28:02.294Z,33.99
2022-09-30T10:30:50.144Z,34.43
2022-09-30T10:33:41.992Z,34.26
2022-09-30T10:36:13.641Z,34.28
2022-09-30T10:39:01.131Z,33.44
2022-09-30T10:41:34.083Z,33.27
2022-09-30T10:44:03.986Z,33.38
2022-09-30T10:46:35.548Z,31.85
2022-09-30T10:49:10.618Z,32.10
2022-09-30T10:51:38.789Z,32.31
2022-09-30T10:54:06.336Z,33.12
2022-09-30T10:56:38.217Z,33.21
2022-09-30T10:59:16.415Z,33.01
2022-09-30T11:01:58.144Z,33.02
2022-09-30T11:04:34.971Z,33.02
2022-09-30T11:07:33.632Z,32.64
2022-09-30T11:10:42.068Z,33.28
2022-09-30T11:13:28.154Z,32.81
2022-09-30T11:16:23.247Z,32.29
2022-09-30T11:19:07.115Z,31.90
2022-09-30T11:21:57.857Z,31.72
2022-09-30T11:24:57.396Z,30.67
2022-09-30T11:27:33.350Z,29.76
2022-09-30T11:30:19.031Z,29.75
2022-09-30T11:33:16.723Z,30.10
2022-09-30T11:35:54.083Z,29.98
2022-09-30T11:38:53.099Z,29.49
2022-09-30T11:41:32.541Z,30.00
2022-09-30T11:44:18.080Z,31.20
2022-09-30T11:47:02.357Z,30.72
2022-09-30T11:49:50.950Z,31.02
2022-09-30T11:52:29.006Z,31.24
2022-09-30T11:55:36.329Z,31.19
2022-09-30T11:58:28.596Z,31.03
2022-09-30T12:01:01.090Z,31.05
2022-09-30T12:03:39.469Z,30.47
2022-09-30T12:06:22.147Z,30.95
2022-09-30T12:08:59.734Z,31.55
2022-09-30T12:11:52.277Z,31.57
2022-09-30T12:14:33.285Z,31.83
2022-09-30T12:17:03.601Z,31.93
2022-09-30T12:19:36.995Z,31.07
2022-09-30T12:22:18.293Z,30.72
2022-09-30T12:24:45.843Z,30.22
2022-09-30T12:27:24.447Z,30.31
2022-09-30T12:30:18.153Z,31.30
2022-09-30T12:33:07.037Z,31.26
2022-09-30T12:36:13.655Z,32.09
2022-09-30T12:39:02.803Z,32.15
2022-09-30T12:41:57.157Z,31.23
2022-09-30T12:44:45.306Z,31.30
2022-09-30T12:47:19.797Z,31.34
2022-09-30T12:49:48.436Z,31.33
2022-09-30T12:52:19.683Z,31.57
2022-09-30T12:54:54.524Z,31.80
2022-09-30T12:57:26.798Z,31.37
2022-09-30T12:59:57.643Z,31.13
2022-09-30T13:02:36.515Z,31.02
2022-09-30T13:05:31.414Z,30.91
2022-09-30T13:08:25.049Z,30.06
2022-09-30T13:11:00.372Z,30.49
2022-09-30T13:13:33.871Z,30.80
2022-09-30T13:16:06.477Z,30.52
2022-09-30T13:18:33.063Z,31.00
2022-09-30T13:21:05.550Z,31.48
2022-09-30T13:23:42.586Z,30.98
2022-09-30T13:26:36.469Z,31.36
2022-09-30T13:29:05.804Z,30.70
2022-09-30T13:31:52.439Z,30.52
2022-09-30T13:34:23.212Z,30.34
2022-09-30T13:37:02.108Z,29.81
2022-09-30T13:39:48.356Z,30.89
2022-09-30T13:42:15.089Z,30.58
2022-09-30T13:45:03.311Z,30.43
2022-09-30T13:47:52.095Z,30.58
2022-09-30T13:50:36.798Z,29.81
2022-09-30T13:53:12.441Z,30.20
2022-09-30T13:55:46.733Z,29.61
2022-09-30T13:58:13.339Z,29.70
2022-09-30T14:01:12.683Z,29.53
2022-09-30T14:03:55.836Z,29.60
2022-09-30T14:06:45.680Z,29.57
2022-09-30T14:09:38.947Z,28.69
2022-09-30T14:12:16.606Z,29.35
2022-09-30T14:15:01.205Z,30.17
2022-09-30T14:17:47.481Z,30.24
2022-09-30T14:20:41.608Z,30.15
2022-09-30T14:23:16.893Z,30.28
2022-09-30T14:25:59.753Z,30.15
2022-09-30T14:28:43.593Z,31.02
2022-09-30T14:31:16.357Z,31.04
2022-09-30T14:33:48.934Z,31.05
2022-09-30T14:36:21.955Z,31.38
2022-09-30T14:39:00.243Z,30.62
2022-09-30T14:41:30.806Z,30.39
2022-09-30T14:44:08.084Z,30.35
2022-09-30T14:46:39.243Z,30.04
2022-09-30T14:49:13.374Z,30.46
2022-09-30T14:51:48.233Z,30.22
2022-09-30T14:54:23.534Z,29.84
2022-09-30T14:56:54.340Z,29.68
2022-09-30T14:59:27.822Z,29.91
2022-09-30T15:02:20.247Z,29.66
2022-09-30T15:05:00.435Z,29.38
2022-09-30T15:07:28.211Z,29.69
2022-09-30T15:10:01.580Z,29.54
2022-09-30T15:12:28.663Z,29.56
2022-09-30T15:14:57.652Z,29.86
2022-09-30T15:17:42.221Z,29.90
2022-09-30T15:20:28.148Z,29.30
2022-09-30T15:22:56.453Z,29.20
2022-09-30T15:25:24.162Z,29.15
2022-09-30T15:27:51.424Z,29.47
2022-09-30T15:30:18.272Z,29.62
2022-09-30T15:32:46.187Z,29.31
2022-09-30T15:35:20.626Z,28.72
2022-09-30T15:37:48.433Z,29.42
2022-09-30T15:40:36.804Z,29.32
2022-09-30T15:43:11.545Z,29.33
2022-09-30T15:45:41.232Z,29.64
2022-09-30T15:48:36.002Z,29.79
2022-09-30T15:51:24.528Z,29.64
2022-09-30T15:53:51.480Z,29.26
2022-09-30T15:56:17.964Z,29.51
2022-09-30T15:58:56.208Z,29.29
2022-09-30T16:01:26.717Z,29.69
2022-09-30T16:03:57.931Z,29.53
2022-09-30T16:06:52.532Z,29.90
2022-09-30T16:09:47.986Z,30.02
2022-09-30T16:12:14.503Z,30.04
2022-09-30T16:14:59.987Z,30.33
2022-09-30T16:17:32.595Z,30.01
2022-09-30T16:20:00.800Z,29.62
2022-09-30T16:22:42.483Z,29.72
2022-09-30T16:25:19.609Z,29.45
2022-09-30T16:27:46.731Z,29.22
2022-09-30T16:30:16.034Z,29.42
2022-09-30T16:32:47.489Z,29.26
2022-09-30T16:35:23.176Z,29.01
2022-09-30T16:37:51.649Z,28.82
2022-09-30T16:40:23.304Z,28.67
2022-09-30T16:42:50.996Z,28.63
2022-09-30T16:45:18.404Z,28.68
2022-09-30T16:47:45.088Z,28.68
2022-09-30T16:50:25.640Z,28.52
2022-09-30T16:52:52.211Z,28.25
2022-09-30T16:55:18.890Z,28.51
2022-09-30T16:57:45.474Z,28.41
2022-09-30T17:00:17.854Z,27.87
2022-09-30T17:02:46.381Z,27.79
2022-09-30T17:05:16.001Z,27.39
2022-09-30T17:07:43.813Z,27.72
2022-09-30T17:10:18.787Z,27.56
2022-09-30T17:12:45.527Z,27.44
2022-09-30T17:15:13.037Z,27.57
2022-09-30T17:17:39.749Z,27.23
2022-09-30T17:20:06.945Z,27.38
2022-09-30T17:22:34.121Z,27.22
2022-09-30T17:25:00.668Z,26.95
2022-09-30T17:27:27.924Z,26.68
2022-09-30T17:29:55.432Z,25.86
2022-09-30T17:32:22.012Z,25.87
2022-09-30T17:34:48.705Z,25.76
2022-09-30T17:37:15.276Z,25.69
2022-09-30T17:39:41.837Z,25.75
2022-09-30T17:42:34.716Z,25.69
2022-09-30T17:45:01.436Z,25.88
2022-09-30T17:47:27.987Z,26.25
2022-09-30T17:49:54.873Z,26.58
2022-09-30T17:52:24.209Z,26.66
2022-09-30T17:54:52.730Z,26.31
2022-09-30T17:57:21.249Z,26.29
2022-09-30T17:59:47.848Z,26.58
2022-09-30T18:02:17.548Z,26.53
2022-09-30T18:04:44.470Z,26.25
2022-09-30T18:07:11.113Z,26.24
2022-09-30T18:09:39.085Z,26.32
2022-09-30T18:12:07.214Z,26.36
2022-09-30T18:14:38.284Z,26.55
2022-09-30T18:17:06.085Z,26.48
2022-09-30T18:19:34.796Z,26.49
2022-09-30T18:22:02.123Z,26.43
2022-09-30T18:24:48.021Z,26.18
2022-09-30T18:27:15.069Z,26.02
2022-09-30T18:29:41.942Z,25.76
2022-09-30T18:32:08.855Z,25.83
2022-09-30T18:34:35.499Z,25.83
2022-09-30T18:37:06.571Z,25.45
2022-09-30T18:39:35.473Z,24.86
2022-09-30T18:42:03.241Z,24.72
2022-09-30T18:44:32.245Z,24.43
2022-09-30T18:47:00.037Z,24.60
2022-09-30T18:49:26.638Z,24.52
2022-09-30T18:51:53.542Z,24.25
2022-09-30T18:54:21.749Z,24.00
2022-09-30T18:56:48.316Z,24.17
2022-09-30T18:59:18.182Z,24.09
2022-09-30T19:01:48.256Z,24.38
2022-09-30T19:04:15.668Z,24.52
2022-09-30T19:06:44.431Z,24.45
2022-09-30T19:09:14.244Z,24.33
2022-09-30T19:11:42.588Z,23.90
2022-09-30T19:14:14.316Z,23.82
2022-09-30T19:16:41.936Z,24.07
2022-09-30T19:19:11.927Z,24.07
2022-09-30T19:21:39.370Z,23.98
2022-09-30T19:24:07.967Z,24.32
2022-09-30T19:26:36.462Z,23.82
2022-09-30T19:29:05.351Z,23.60
2022-09-30T19:31:33.824Z,23.75
2022-09-30T19:34:01.579Z,23.38
2022-09-30T19:36:31.237Z,23.25
2022-09-30T19:39:09.874Z,22.83
2022-09-30T19:41:37.604Z,23.20
2022-09-30T19:44:05.952Z,23.53
2022-09-30T19:46:32.629Z,23.21
2022-09-30T19:48:59.277Z,23.19
2022-09-30T19:51:29.054Z,23.19
2022-09-30T19:54:04.763Z,23.15
2022-09-30T19:56:33.509Z,23.09
2022-09-30T19:59:00.633Z,23.07
2022-09-30T20:01:28.480Z,22.84
2022-09-30T20:03:57.497Z,22.54
2022-09-30T20:06:24.228Z,22.46
2022-09-30T20:08:53.477Z,22.67
2022-09-30T20:11:21.835Z,22.43
2022-09-30T20:14:13.522Z,22.41
2022-09-30T20:16:42.470Z,22.09
2022-09-30T20:19:10.193Z,22.58
2022-09-30T20:21:41.918Z,21.77
2022-09-30T20:24:14.491Z,21.93
2022-09-30T20:26:42.240Z,22.08
2022-09-30T20:29:10.734Z,22.19
2022-09-30T20:31:40.740Z,21.93
2022-09-30T20:34:09.551Z,22.36
2022-09-30T20:36:36.368Z,22.35
2022-09-30T20:39:03.516Z,21.86
2022-09-30T20:41:35.132Z,22.06
2022-09-30T20:44:06.942Z,21.83
2022-09-30T20:46:34.575Z,21.90
2022-09-30T20:49:02.277Z,22.00
2022-09-30T20:51:30.720Z,21.73
2022-09-30T20:53:59.804Z,21.45
2022-09-30T20:56:44.125Z,21.43
2022-09-30T20:59:17.029Z,21.21
2022-09-30T21:01:43.707Z,20.81
2022-09-30T21:04:10.295Z,20.93
2022-09-30T21:06:37.285Z,21.45
2022-09-30T21:09:03.966Z,21.17
2022-09-30T21:11:31.288Z,21.12
2022-09-30T21:13:58.251Z,21.12
2022-09-30T21:16:25.377Z,20.64
2022-09-30T21:18:53.346Z,21.17
2022-09-30T21:21:24.572Z,21.23
2022-09-30T21:23:55.458Z,21.80
2022-09-30T21:26:22.045Z,21.82
2022-09-30T21:28:50.609Z,21.37
2022-09-30T21:31:24.736Z,21.26
2022-09-30T21:33:53.456Z,21.15
2022-09-30T21:36:21.247Z,21.09
2022-09-30T21:38:50.087Z,21.20
2022-09-30T21:41:17.458Z,21.53
2022-09-30T21:43:44.441Z,21.63
2022-09-30T21:46:13.137Z,21.52
2022-09-30T21:48:39.754Z,21.25
2022-09-30T21:51:07.621Z,20.78
2022-09-30T21:53:34.203Z,20.70
2022-09-30T21:56:02.453Z,20.55
2022-09-30T21:58:31.653Z,20.83
2022-09-30T22:01:02.627Z,21.09
2022-09-30T22:03:35.863Z,20.78
2022-09-30T22:06:03.463Z,20.74
2022-09-30T22:08:35.346Z,20.73
2022-09-30T22:11:06.709Z,20.58
2022-09-30T22:13:33.295Z,20.67
2022-09-30T22:16:05.572Z,20.94
2022-09-30T22:18:32.948Z,20.74
2022-09-30T22:21:08.552Z,21.11
2022-09-30T22:23:35.123Z,21.10
2022-09-30T22:26:22.549Z,21.21
2022-09-30T22:28:55.165Z,21.37
2022-09-30T22:31:27.066Z,21.28
2022-09-30T22:34:26.217Z,20.89
2022-09-30T22:37:11.804Z,21.08
2022-09-30T22:39:38.347Z,20.94
2022-09-30T22:42:04.936Z,20.88
2022-09-30T22:44:36.769Z,21.03
2022-09-30T22:47:04.605Z,21.17
2022-09-30T22:49:32.502Z,20.71
2022-09-30T22:52:00.812Z,21.27
2022-09-30T22:54:29.065Z,21.23
2022-09-30T22:56:58.305Z,21.06
2022-09-30T22:59:26.022Z,20.81
2022-09-30T23:01:52.734Z,20.90
2022-09-30T23:04:19.722Z,21.01
2022-09-30T23:06:52.049Z,20.94
2022-09-30T23:09:20.719Z,21.91
2022-09-30T23:11:48.381Z,21.83
2022-09-30T23:14:15.122Z,21.80
2022-09-30T23:16:42.693Z,21.97
2022-09-30T23:19:10.501Z,21.61
2022-09-30T23:21:37.409Z,21.41
2022-09-30T23:24:04.679Z,21.88
2022-09-30T23:26:31.376Z,21.76
2022-09-30T23:29:00.079Z,21.80
2022-09-30T23:31:27.575Z,22.01
2022-09-30T23:34:01.242Z,21.82
2022-09-30T23:36:30.973Z,21.78
2022-09-30T23:39:04.176Z,21.91
2022-09-30T23:41:32.710Z,21.92
2022-09-30T23:43:59.760Z,21.82
2022-09-30T23:46:26.848Z,22.20
2022-09-30T23:48:53.473Z,21.88
2022-09-30T23:51:20.363Z,21.39
2022-09-30T23:53:46.992Z,21.70
2022-09-30T23:56:16.296Z,21.85
2022-09-30T23:58:44.582Z,21.10
